Time;durP1;ratioP1;P1;durP2;ratioP2;P2;SDS_P1;SDS_P2;PMS_P1;PMS_P2;Temp;Humidity;BMP_temperature;BMP_pressure;BME280_temperature;BME280_humidity;BME280_pressure;Samples;Min_cycle;Max_cycle;Signal;HPM_P1;HPM_P2
2023/03/30 00:00:41;;;;;;;1.08;0.77;;;11.00;99.90;;;;;;5072083;28;20045;-85
2023/03/30 00:03:01;;;;;;;0.70;0.55;;;11.00;99.90;;;;;;5052239;28;20060;-85
2023/03/30 00:05:28;;;;;;;0.52;0.52;;;11.90;99.90;;;;;;5053693;28;20045;-85
2023/03/30 00:07:54;;;;;;;1.33;0.98;;;11.60;99.90;;;;;;5052003;28;20616;-85
2023/03/30 00:10:20;;;;;;;0.98;0.85;;;11.20;99.90;;;;;;5050916;28;20045;-85
2023/03/30 00:12:49;;;;;;;1.05;0.68;;;11.30;99.90;;;;;;5050892;28;20509;-85
2023/03/30 00:15:17;;;;;;;2.38;0.90;;;11.30;99.90;;;;;;5051503;28;20578;-85
2023/03/30 00:17:43;;;;;;;1.08;0.82;;;11.40;99.90;;;;;;5050392;28;20110;-85
2023/03/30 00:20:13;;;;;;;1.05;0.47;;;11.40;99.90;;;;;;5052092;28;20468;-86
2023/03/30 00:22:40;;;;;;;1.42;0.47;;;11.50;99.90;;;;;;5060810;28;20669;-85
2023/03/30 00:25:07;;;;;;;0.47;0.30;;;11.60;99.90;;;;;;5051502;28;20037;-87
2023/03/30 00:27:34;;;;;;;0.85;0.65;;;11.60;99.90;;;;;;5051013;28;20095;-85
2023/03/30 00:30:01;;;;;;;1.13;0.95;;;11.70;99.90;;;;;;5051555;28;20124;-85
2023/03/30 00:32:26;;;;;;;1.13;0.90;;;11.70;46.40;;;;;;5051069;28;20044;-85
2023/03/30 00:34:52;;;;;;;7.28;2.35;;;11.60;99.90;;;;;;5051212;28;20045;-85
2023/03/30 00:37:18;;;;;;;0.70;0.70;;;12.40;1.00;;;;;;5050561;28;20064;-85
2023/03/30 00:39:44;;;;;;;0.28;0.28;;;12.90;99.90;;;;;;5050615;28;20059;-85
2023/03/30 00:42:15;;;;;;;2.05;1.23;;;11.80;99.90;;;;;;5057063;28;20044;-85
2023/03/30 00:44:56;;;;;;;0.88;0.52;;;11.90;99.90;;;;;;5070218;28;20083;-85
2023/03/30 00:47:22;;;;;;;3.13;0.90;;;11.80;1.00;;;;;;5069489;28;20450;-84
2023/03/30 00:49:47;;;;;;;0.55;0.55;;;11.90;99.90;;;;;;5068093;28;20079;-85
2023/03/30 00:52:18;;;;;;;1.10;0.68;;;13.00;99.90;;;;;;5049805;28;20128;-84
2023/03/30 00:54:45;;;;;;;2.75;0.73;;;13.00;99.90;;;;;;5049565;28;20441;-84
2023/03/30 00:57:12;;;;;;;1.33;0.88;;;11.70;99.90;;;;;;5048254;28;20049;-85
2023/03/30 00:59:38;;;;;;;2.08;0.73;;;11.60;78.60;;;;;;5049122;28;20049;-84
2023/03/30 01:02:04;;;;;;;0.28;0.28;;;11.70;99.90;;;;;;5063232;28;20051;-85
2023/03/30 01:04:30;;;;;;;3.72;0.68;;;11.70;99.90;;;;;;5047729;28;20072;-84
2023/03/30 01:06:57;;;;;;;1.67;0.98;;;11.70;99.90;;;;;;5048721;28;20076;-84
2023/03/30 01:09:24;;;;;;;1.80;1.48;;;11.70;1.00;;;;;;5048700;28;20495;-85
2023/03/30 01:11:50;;;;;;;7.22;1.10;;;12.50;99.90;;;;;;5048598;28;20069;-85
2023/03/30 01:14:17;;;;;;;1.30;0.60;;;11.60;1.00;;;;;;5048255;28;20048;-85
2023/03/30 01:16:54;;;;;;;0.30;0.30;;;12.40;1.00;;;;;;5048611;28;20053;-85
2023/03/30 01:19:51;;;;;;;0.20;0.20;;;11.40;18.30;;;;;;5049513;28;20153;-85
2023/03/30 01:22:33;;;;;;;0.43;0.43;;;11.40;5.10;;;;;;5068199;28;20041;-85
2023/03/30 01:25:14;;;;;;;0.90;0.50;;;11.30;99.90;;;;;;5068489;28;20053;-85
2023/03/30 01:28:11;;;;;;;0.10;0.10;;;11.30;99.90;;;;;;5029876;28;20124;-86
2023/03/30 01:30:46;;;;;;;1.13;0.75;;;11.20;99.90;;;;;;5029407;28;20049;-85
2023/03/30 01:33:41;;;;;;;2.05;1.27;;;11.30;99.90;;;;;;5029403;28;20080;-86
2023/03/30 01:36:34;;;;;;;1.00;0.85;;;11.20;99.90;;;;;;5040028;28;20064;-85
2023/03/30 01:39:20;;;;;;;0.10;0.10;;;11.30;99.90;;;;;;5028611;28;20503;-86
2023/03/30 01:41:57;;;;;;;0.65;0.47;;;11.40;99.90;;;;;;5062644;28;20036;-85
2023/03/30 01:44:26;;;;;;;0.30;0.30;;;11.40;99.90;;;;;;5068125;28;20068;-84
2023/03/30 01:47:21;;;;;;;0.00;0.00;;;11.50;2.50;;;;;;5067783;28;20071;-84
2023/03/30 01:49:56;;;;;;;0.08;0.08;;;11.50;1.00;;;;;;5067612;28;20048;-85
2023/03/30 01:52:36;;;;;;;3.83;1.35;;;11.90;20.00;;;;;;5068884;28;20066;-85
2023/03/30 01:55:14;;;;;;;0.05;0.05;;;11.50;1.00;;;;;;5049734;28;20052;-85
2023/03/30 01:57:51;;;;;;;0.55;0.35;;;11.40;1.00;;;;;;5049744;28;20065;-85
2023/03/30 02:00:21;;;;;;;0.10;0.10;;;11.30;59.40;;;;;;5032219;28;20048;-86
2023/03/30 02:03:10;;;;;;;0.95;0.25;;;11.30;99.90;;;;;;5048674;28;20072;-85
2023/03/30 02:05:37;;;;;;;0.47;0.47;;;12.00;99.90;;;;;;5048458;28;20064;-84
2023/03/30 02:08:25;;;;;;;0.45;0.45;;;11.20;99.90;;;;;;5048176;28;20045;-85
2023/03/30 02:10:53;;;;;;;0.63;0.57;;;11.20;99.90;;;;;;5051952;28;20048;-85
2023/03/30 02:13:21;;;;;;;0.50;0.30;;;11.20;99.90;;;;;;5068329;28;20037;-85
2023/03/30 02:15:51;;;;;;;0.60;0.45;;;11.30;99.90;;;;;;5071286;28;20615;-84
2023/03/30 02:18:19;;;;;;;0.57;0.57;;;11.30;99.90;;;;;;5073373;28;20430;-85
2023/03/30 02:20:45;;;;;;;0.30;0.22;;;11.30;99.90;;;;;;5062533;28;20044;-85
2023/03/30 02:23:12;;;;;;;0.10;0.10;;;11.30;99.90;;;;;;5066553;28;20048;-85
2023/03/30 02:25:38;;;;;;;1.65;0.88;;;11.20;99.90;;;;;;5055503;28;20414;-86
2023/03/30 02:28:06;;;;;;;0.47;0.30;;;11.20;99.90;;;;;;5053332;28;20564;-85
2023/03/30 02:30:38;;;;;;;0.30;0.20;;;11.40;99.90;;;;;;5053279;28;20076;-85
2023/03/30 02:33:06;;;;;;;0.32;0.32;;;11.10;99.90;;;;;;5052208;28;20268;-85
2023/03/30 02:35:51;;;;;;;0.40;0.08;;;12.00;99.90;;;;;;5052868;28;20048;-85
2023/03/30 02:38:22;;;;;;;0.22;0.22;;;11.00;99.90;;;;;;5053375;28;20053;-85
2023/03/30 02:41:27;;;;;;;0.20;0.20;;;11.00;99.90;;;;;;5064074;28;20109;-85
2023/03/30 02:44:22;;;;;;;0.47;0.35;;;11.00;99.90;;;;;;5052766;28;20068;-86
2023/03/30 02:47:03;;;;;;;0.00;0.00;;;11.00;99.90;;;;;;5053328;28;20568;-85
2023/03/30 02:49:54;;;;;;;0.55;0.50;;;11.10;99.90;;;;;;5053222;28;20060;-85
2023/03/30 02:52:32;;;;;;;0.20;0.20;;;11.10;99.90;;;;;;5072072;28;20517;-85
2023/03/30 02:55:21;;;;;;;0.60;0.45;;;11.20;99.90;;;;;;5073223;28;20052;-85
2023/03/30 02:58:02;;;;;;;1.55;1.08;;;11.20;99.90;;;;;;5074026;28;20043;-86
2023/03/30 03:01:07;;;;;;;0.65;0.55;;;11.30;99.90;;;;;;5069890;28;20049;-86
2023/03/30 03:03:40;;;;;;;0.35;0.30;;;11.30;99.90;;;;;;5073599;28;20048;-85
2023/03/30 03:06:08;;;;;;;0.00;0.00;;;11.30;99.90;;;;;;5073436;28;20379;-85
2023/03/30 03:08:39;;;;;;;0.90;0.60;;;11.30;99.90;;;;;;5073353;28;20051;-85
2023/03/30 03:11:08;;;;;;;0.30;0.20;;;11.40;99.90;;;;;;5068677;28;20051;-85
2023/03/30 03:13:36;;;;;;;0.77;0.60;;;11.40;99.90;;;;;;5073775;28;20052;-85
2023/03/30 03:16:06;;;;;;;1.33;0.75;;;11.30;99.90;;;;;;5073554;28;20052;-85
2023/03/30 03:18:33;;;;;;;0.22;0.22;;;11.40;99.90;;;;;;5073069;28;20048;-85
2023/03/30 03:21:00;;;;;;;0.93;0.40;;;11.40;99.90;;;;;;5071715;28;20053;-85
2023/03/30 03:23:26;;;;;;;0.63;0.60;;;11.20;99.90;;;;;;5072829;28;20417;-85
2023/03/30 03:25:52;;;;;;;0.25;0.25;;;11.20;99.90;;;;;;5070300;28;20052;-84
2023/03/30 03:28:17;;;;;;;1.45;0.88;;;11.20;99.90;;;;;;5072175;28;20044;-85
2023/03/30 03:30:43;;;;;;;0.35;0.35;;;12.00;99.90;;;;;;5072204;28;20040;-84
2023/03/30 03:33:09;;;;;;;0.00;0.00;;;11.10;99.90;;;;;;5071869;28;20041;-85
2023/03/30 03:35:38;;;;;;;2.65;0.82;;;11.00;99.90;;;;;;5069624;28;20611;-84
2023/03/30 03:38:05;;;;;;;0.00;0.00;;;10.90;99.90;;;;;;5070850;28;20131;-85
2023/03/30 03:40:32;;;;;;;0.38;0.38;;;10.80;99.90;;;;;;5064575;28;20083;-84
2023/03/30 03:42:57;;;;;;;0.10;0.10;;;10.80;99.90;;;;;;5050904;28;20109;-85
2023/03/30 03:45:23;;;;;;;0.15;0.15;;;10.70;99.90;;;;;;5051093;28;20061;-84
2023/03/30 03:47:52;;;;;;;0.65;0.63;;;10.80;99.90;;;;;;5051015;28;20048;-85
2023/03/30 03:50:18;;;;;;;2.08;0.85;;;10.80;99.90;;;;;;5055974;28;20409;-84
2023/03/30 03:52:44;;;;;;;0.00;0.00;;;11.00;99.90;;;;;;5070850;28;20044;-84
2023/03/30 03:55:10;;;;;;;5.03;1.63;;;11.10;99.90;;;;;;5071148;28;20045;-85
2023/03/30 03:57:36;;;;;;;0.32;0.03;;;11.20;99.90;;;;;;5071514;28;20452;-85
2023/03/30 04:00:04;;;;;;;0.55;0.50;;;11.30;99.90;;;;;;5071043;28;20052;-86
2023/03/30 04:02:29;;;;;;;1.92;0.52;;;11.40;87.20;;;;;;5071145;28;20405;-84
2023/03/30 04:04:56;;;;;;;0.43;0.28;;;11.40;1.00;;;;;;5069647;28;20048;-86
2023/03/30 04:07:24;;;;;;;0.90;0.80;;;11.40;1.00;;;;;;5070473;28;20459;-85
2023/03/30 04:09:50;;;;;;;0.00;0.00;;;11.80;99.90;;;;;;5057061;28;20058;-85
2023/03/30 04:12:15;;;;;;;0.35;0.35;;;11.50;99.90;;;;;;5050610;28;20083;-85
2023/03/30 04:14:41;;;;;;;0.00;0.00;;;11.50;99.90;;;;;;5050430;28;20076;-85
2023/03/30 04:17:07;;;;;;;2.33;0.85;;;11.50;99.90;;;;;;5051725;28;20107;-85
2023/03/30 04:19:34;;;;;;;0.20;0.20;;;11.50;99.90;;;;;;5050837;28;20053;-85
2023/03/30 04:22:00;;;;;;;0.20;0.20;;;11.50;99.90;;;;;;5049890;28;20502;-85
2023/03/30 04:24:28;;;;;;;0.00;0.00;;;11.50;99.90;;;;;;5050535;28;20092;-85
2023/03/30 04:26:56;;;;;;;2.58;0.60;;;11.60;1.00;;;;;;5050679;28;20053;-85
2023/03/30 04:29:22;;;;;;;0.32;0.30;;;11.60;99.90;;;;;;5058126;28;20612;-85
2023/03/30 04:31:49;;;;;;;0.10;0.10;;;11.60;99.90;;;;;;5069057;28;20052;-86
2023/03/30 04:34:20;;;;;;;0.63;0.63;;;11.60;99.90;;;;;;5070412;28;20082;-85
2023/03/30 04:36:46;;;;;;;0.13;0.13;;;11.70;1.00;;;;;;5070179;28;20052;-85
2023/03/30 04:39:12;;;;;;;0.00;0.00;;;11.60;1.00;;;;;;5062156;28;20106;-85
2023/03/30 04:41:40;;;;;;;0.03;0.03;;;11.60;21.10;;;;;;5049735;28;20049;-85
2023/03/30 04:44:09;;;;;;;0.65;0.65;;;11.60;51.50;;;;;;5049407;28;20061;-85
2023/03/30 04:46:35;;;;;;;0.40;0.35;;;11.60;1.00;;;;;;5049481;28;20473;-85
2023/03/30 04:49:01;;;;;;;0.52;0.43;;;12.40;93.90;;;;;;5049662;28;20428;-85
2023/03/30 04:51:27;;;;;;;0.30;0.30;;;11.60;1.00;;;;;;5049036;28;20080;-85
2023/03/30 04:53:53;;;;;;;0.30;0.30;;;11.70;1.00;;;;;;5048623;28;20099;-85
2023/03/30 04:56:19;;;;;;;0.30;0.30;;;11.70;99.90;;;;;;5048528;28;20045;-86
2023/03/30 04:58:45;;;;;;;2.55;1.10;;;11.70;14.60;;;;;;5050572;28;20041;-85
2023/03/30 05:01:10;;;;;;;0.15;0.10;;;11.80;1.00;;;;;;5068934;28;20041;-85
2023/03/30 05:03:37;;;;;;;0.00;0.00;;;11.90;99.90;;;;;;5069104;28;20127;-85
2023/03/30 05:06:02;;;;;;;0.10;0.10;;;11.90;42.30;;;;;;5068665;28;20048;-86
2023/03/30 05:08:29;;;;;;;0.10;0.08;;;11.90;99.90;;;;;;5053186;28;20052;-85
2023/03/30 05:10:56;;;;;;;0.13;0.13;;;12.00;99.90;;;;;;5047968;28;20124;-85
2023/03/30 05:13:22;;;;;;;0.00;0.00;;;12.00;99.90;;;;;;5046760;28;20052;-85
2023/03/30 05:15:55;;;;;;;0.50;0.40;;;12.10;1.00;;;;;;5046411;28;20089;-85
2023/03/30 05:18:20;;;;;;;0.00;0.00;;;13.00;35.00;;;;;;5057509;28;20032;-84
2023/03/30 05:20:47;;;;;;;2.17;1.77;;;12.30;99.90;;;;;;5066954;28;20140;-84
2023/03/30 05:23:12;;;;;;;0.00;0.00;;;12.50;99.90;;;;;;5066884;28;20463;-85
2023/03/30 05:25:44;;;;;;;0.25;0.25;;;12.20;99.90;;;;;;5067818;28;20059;-84
2023/03/30 05:28:09;;;;;;;0.10;0.10;;;12.90;99.90;;;;;;5056646;28;20080;-85
2023/03/30 05:30:35;;;;;;;0.30;0.30;;;13.10;1.00;;;;;;5047035;28;20410;-85
2023/03/30 05:33:01;;;;;;;0.10;0.10;;;12.30;18.60;;;;;;5046818;28;20455;-85
2023/03/30 05:35:26;;;;;;;0.63;0.38;;;13.30;1.00;;;;;;5047401;28;20044;-85
2023/03/30 05:37:54;;;;;;;0.00;0.00;;;12.30;1.00;;;;;;5047657;28;20099;-85
2023/03/30 05:40:19;;;;;;;0.03;0.00;;;12.30;99.90;;;;;;5046954;28;20502;-84
2023/03/30 05:42:45;;;;;;;0.40;0.40;;;12.30;1.00;;;;;;5046141;28;20111;-84
2023/03/30 05:45:11;;;;;;;1.95;0.85;;;12.20;99.90;;;;;;5046879;28;20100;-85
2023/03/30 05:47:36;;;;;;;1.17;0.75;;;12.10;88.60;;;;;;5048331;28;20049;-85
2023/03/30 05:50:02;;;;;;;0.55;0.45;;;11.90;1.00;;;;;;5048163;28;20044;-84
2023/03/30 05:52:28;;;;;;;0.00;0.00;;;11.70;99.90;;;;;;5049201;28;20043;-84
2023/03/30 05:54:53;;;;;;;0.10;0.10;;;11.50;99.90;;;;;;5041886;28;20131;-85
2023/03/30 05:57:20;;;;;;;0.55;0.55;;;11.50;99.90;;;;;;5041545;28;20041;-84
2023/03/30 05:59:46;;;;;;;0.05;0.05;;;11.70;99.90;;;;;;5041209;28;20505;-85
2023/03/30 06:02:13;;;;;;;0.52;0.35;;;11.50;99.90;;;;;;5041776;28;20051;-84
2023/03/30 06:04:38;;;;;;;0.52;0.38;;;11.50;99.90;;;;;;5041598;28;20045;-85
2023/03/30 06:07:06;;;;;;;0.35;0.35;;;11.50;99.90;;;;;;5040061;28;20483;-85
2023/03/30 06:09:32;;;;;;;0.68;0.47;;;11.50;99.90;;;;;;5040769;28;20384;-85
2023/03/30 06:11:59;;;;;;;0.10;0.10;;;11.50;99.90;;;;;;5041117;28;20073;-85
2023/03/30 06:14:25;;;;;;;0.75;0.57;;;11.70;99.90;;;;;;5040630;28;20048;-85
2023/03/30 06:16:50;;;;;;;4.20;0.38;;;12.30;99.90;;;;;;5041217;28;20041;-84
2023/03/30 06:19:16;;;;;;;0.60;0.60;;;12.20;99.90;;;;;;5040996;28;20075;-84
2023/03/30 06:21:42;;;;;;;0.17;0.17;;;11.90;99.90;;;;;;5040880;28;20045;-84
2023/03/30 06:24:07;;;;;;;7.63;2.03;;;12.50;28.00;;;;;;5040684;28;20702;-84
2023/03/30 06:26:33;;;;;;;1.00;0.52;;;13.20;1.00;;;;;;5040898;28;20044;-84
2023/03/30 06:28:59;;;;;;;0.13;0.10;;;12.10;99.90;;;;;;5040589;28;20095;-84
2023/03/30 06:31:25;;;;;;;0.00;0.00;;;12.50;99.90;;;;;;5039539;28;20060;-84
2023/03/30 06:33:51;;;;;;;0.15;0.15;;;12.20;76.30;;;;;;5040303;28;20123;-84
2023/03/30 06:36:17;;;;;;;0.17;0.17;;;12.20;1.00;;;;;;5040155;28;20040;-84
2023/03/30 06:38:43;;;;;;;1.98;1.15;;;12.30;1.00;;;;;;5040614;28;20538;-84
2023/03/30 06:41:10;;;;;;;2.30;0.80;;;12.40;99.90;;;;;;5040812;28;20051;-84
2023/03/30 06:43:37;;;;;;;2.65;1.10;;;13.80;99.90;;;;;;5040495;28;20422;-84
2023/03/30 06:46:03;;;;;;;0.10;0.10;;;12.70;99.90;;;;;;5041356;28;20059;-84
2023/03/30 06:48:29;;;;;;;0.90;0.28;;;13.00;99.90;;;;;;5041328;28;20498;-84
2023/03/30 06:50:55;;;;;;;1.27;0.68;;;13.50;99.90;;;;;;5041350;28;20052;-84
2023/03/30 06:53:22;;;;;;;0.08;0.08;;;13.80;1.00;;;;;;5040045;28;20045;-84
2023/03/30 06:55:52;;;;;;;0.17;0.10;;;13.90;99.90;;;;;;5040225;28;20584;-84
2023/03/30 06:58:18;;;;;;;0.47;0.40;;;14.70;99.90;;;;;;5040173;28;20077;-84
2023/03/30 07:00:44;;;;;;;8.77;1.00;;;14.00;18.80;;;;;;5041418;28;20667;-84
2023/03/30 07:03:10;;;;;;;0.40;0.30;;;13.90;1.00;;;;;;5044776;28;20056;-84
2023/03/30 07:05:36;;;;;;;0.52;0.40;;;13.60;1.00;;;;;;5043784;28;20406;-85
2023/03/30 07:08:03;;;;;;;0.10;0.10;;;14.00;1.00;;;;;;5044164;28;20475;-84
2023/03/30 07:10:29;;;;;;;0.00;0.00;;;13.60;25.40;;;;;;5044765;28;20449;-84
2023/03/30 07:12:55;;;;;;;0.25;0.25;;;14.90;99.90;;;;;;5043252;28;20045;-84
2023/03/30 07:15:21;;;;;;;0.20;0.20;;;13.90;99.90;;;;;;5042621;28;20064;-84
2023/03/30 07:17:47;;;;;;;2.05;0.73;;;13.90;99.90;;;;;;5042353;28;20049;-84
2023/03/30 07:20:16;;;;;;;1.85;0.73;;;13.80;99.90;;;;;;5042705;28;20048;-84
2023/03/30 07:22:42;;;;;;;0.00;0.00;;;13.40;99.90;;;;;;5042703;28;20045;-84
2023/03/30 07:25:08;;;;;;;12.18;1.10;;;14.20;1.00;;;;;;5042815;28;20459;-84
2023/03/30 07:27:37;;;;;;;0.45;0.43;;;13.20;99.90;;;;;;5042945;28;20093;-84
2023/03/30 07:30:08;;;;;;;0.88;0.55;;;13.00;1.00;;;;;;5042312;28;20427;-85
2023/03/30 07:32:35;;;;;;;1.20;0.55;;;12.80;99.90;;;;;;5042362;28;20079;-85
2023/03/30 07:35:01;;;;;;;3.25;0.40;;;12.50;99.90;;;;;;5042177;28;20097;-84
2023/03/30 07:37:27;;;;;;;0.70;0.63;;;12.70;99.90;;;;;;5042908;28;20446;-85
2023/03/30 07:39:55;;;;;;;0.10;0.10;;;12.30;99.90;;;;;;5043202;28;20131;-85
2023/03/30 07:42:20;;;;;;;0.52;0.52;;;12.10;99.90;;;;;;5043323;28;20045;-85
2023/03/30 07:44:46;;;;;;;1.88;0.52;;;11.90;99.90;;;;;;5043822;28;20057;-86
2023/03/30 07:47:12;;;;;;;0.17;0.17;;;12.60;99.90;;;;;;5042823;28;20396;-84
2023/03/30 07:49:38;;;;;;;0.00;0.00;;;11.70;99.90;;;;;;5043110;28;20113;-85
2023/03/30 07:52:04;;;;;;;0.20;0.20;;;11.70;99.90;;;;;;5042887;28;20406;-85
2023/03/30 07:54:29;;;;;;;0.20;0.20;;;12.40;99.90;;;;;;5042109;28;20082;-84
2023/03/30 07:56:55;;;;;;;0.10;0.10;;;11.60;99.90;;;;;;5042472;28;20041;-85
2023/03/30 07:59:22;;;;;;;0.43;0.43;;;11.60;99.90;;;;;;5042760;28;20064;-85
2023/03/30 08:01:53;;;;;;;0.75;0.75;;;11.70;99.90;;;;;;5046167;28;20053;-86
2023/03/30 08:04:24;;;;;;;0.00;0.00;;;11.60;99.90;;;;;;5046659;28;20079;-86
2023/03/30 08:06:51;;;;;;;0.20;0.17;;;11.50;99.90;;;;;;5044097;28;20078;-85
2023/03/30 08:09:17;;;;;;;1.73;1.38;;;11.50;99.90;;;;;;5043894;28;20068;-86
2023/03/30 08:11:42;;;;;;;1.08;0.98;;;11.50;99.90;;;;;;5043571;28;20045;-85
2023/03/30 08:14:11;;;;;;;0.10;0.10;;;12.50;99.90;;;;;;5043554;28;20041;-86
2023/03/30 08:16:37;;;;;;;0.00;0.00;;;11.50;99.90;;;;;;5044708;28;20045;-85
2023/03/30 08:19:02;;;;;;;0.57;0.57;;;11.50;99.90;;;;;;5045453;28;20540;-86
2023/03/30 08:21:28;;;;;;;0.55;0.55;;;11.30;99.90;;;;;;5045605;28;20052;-85
2023/03/30 08:23:57;;;;;;;0.10;0.10;;;11.20;99.90;;;;;;5046635;28;20101;-85
2023/03/30 08:26:25;;;;;;;2.40;0.95;;;11.30;99.90;;;;;;5044834;28;20045;-86
2023/03/30 08:28:51;;;;;;;0.30;0.30;;;11.20;99.90;;;;;;5043955;28;20052;-85
2023/03/30 08:31:17;;;;;;;0.20;0.20;;;11.10;99.90;;;;;;5046013;28;20048;-86
2023/03/30 08:33:43;;;;;;;0.85;0.50;;;11.20;99.90;;;;;;5043954;28;20897;-85
2023/03/30 08:36:11;;;;;;;0.32;0.30;;;11.10;99.90;;;;;;5042425;28;20040;-84
2023/03/30 08:38:38;;;;;;;0.50;0.50;;;11.10;99.90;;;;;;5044044;28;20053;-85
2023/03/30 08:41:28;;;;;;;2.60;1.52;;;11.20;99.90;;;;;;5044637;28;20037;-85
2023/03/30 08:43:56;;;;;;;3.15;2.08;;;11.20;99.90;;;;;;5042218;28;20060;-85
2023/03/30 08:46:22;;;;;;;1.40;1.30;;;11.20;99.90;;;;;;5042627;28;20457;-84
2023/03/30 08:48:49;;;;;;;0.10;0.10;;;12.20;99.90;;;;;;5043452;28;20108;-85
2023/03/30 08:51:23;;;;;;;4.85;2.17;;;11.20;99.90;;;;;;5044203;28;20131;-85
2023/03/30 08:54:06;;;;;;;0.75;0.38;;;11.20;99.90;;;;;;5042976;28;20509;-84
2023/03/30 08:56:59;;;;;;;0.00;0.00;;;11.20;99.90;;;;;;5043786;28;20044;-85
2023/03/30 08:59:54;;;;;;;0.00;0.00;;;11.30;99.90;;;;;;5044200;28;20051;-84
2023/03/30 09:02:46;;;;;;;11.07;1.67;;;11.40;99.90;;;;;;5042328;28;20107;-85
2023/03/30 09:05:27;;;;;;;0.03;0.03;;;11.60;99.90;;;;;;5042947;28;20461;-85
2023/03/30 09:08:08;;;;;;;3.45;1.83;;;12.20;99.90;;;;;;5043075;28;20063;-85
2023/03/30 09:10:38;;;;;;;0.47;0.45;;;12.00;99.90;;;;;;5041047;28;20080;-85
2023/03/30 09:13:05;;;;;;;0.00;0.00;;;12.00;99.90;;;;;;5043234;28;20067;-85
2023/03/30 09:15:42;;;;;;;0.63;0.63;;;12.10;99.90;;;;;;5043069;28;20053;-85
2023/03/30 09:18:22;;;;;;;0.80;0.50;;;12.40;99.90;;;;;;5043104;28;20168;-85
2023/03/30 09:20:51;;;;;;;2.50;1.85;;;12.60;99.90;;;;;;5042853;28;20589;-85
2023/03/30 09:23:17;;;;;;;2.15;1.13;;;12.70;19.90;;;;;;5042571;28;20106;-85
2023/03/30 09:26:22;;;;;;;0.32;0.32;;;12.70;99.90;;;;;;5041812;28;20055;-85
2023/03/30 09:29:05;;;;;;;0.85;0.75;;;12.80;99.90;;;;;;5042576;28;20064;-85
2023/03/30 09:31:46;;;;;;;0.22;0.20;;;12.80;99.90;;;;;;5041113;28;20044;-85
2023/03/30 09:34:33;;;;;;;0.20;0.20;;;13.60;99.90;;;;;;5041395;28;20052;-85
2023/03/30 09:37:17;;;;;;;0.32;0.32;;;13.00;80.80;;;;;;5040953;28;20041;-85
2023/03/30 09:39:44;;;;;;;2.35;1.33;;;13.30;1.00;;;;;;5042549;28;20519;-85
2023/03/30 09:42:23;;;;;;;0.20;0.20;;;14.60;99.90;;;;;;5042985;28;20041;-86
2023/03/30 09:44:51;;;;;;;2.35;1.40;;;13.50;88.00;;;;;;5041360;28;20064;-85
2023/03/30 09:47:35;;;;;;;3.40;1.25;;;14.10;99.90;;;;;;5042867;28;20057;-85
2023/03/30 09:50:08;;;;;;;3.35;2.42;;;13.60;1.00;;;;;;5042823;28;20760;-85
2023/03/30 09:52:36;;;;;;;3.35;1.10;;;13.80;99.90;;;;;;5042610;28;20083;-85
2023/03/30 09:55:20;;;;;;;0.05;0.05;;;13.80;99.90;;;;;;5042089;28;20056;-85
2023/03/30 09:57:47;;;;;;;0.25;0.20;;;13.90;99.90;;;;;;5042350;28;20494;-85
2023/03/30 10:00:28;;;;;;;0.40;0.40;;;13.90;99.90;;;;;;5042193;28;20075;-85
2023/03/30 10:03:02;;;;;;;1.35;0.88;;;13.80;99.90;;;;;;5041814;28;20045;-85
2023/03/30 10:05:30;;;;;;;1.60;0.65;;;14.60;99.90;;;;;;5042457;28;20176;-85
2023/03/30 10:07:59;;;;;;;0.13;0.13;;;14.50;99.90;;;;;;5042358;28;20059;-85
2023/03/30 10:10:25;;;;;;;1.90;1.00;;;14.20;99.90;;;;;;5041884;28;20092;-85
2023/03/30 10:12:54;;;;;;;0.47;0.47;;;13.00;99.90;;;;;;5042079;28;20053;-85
2023/03/30 10:15:26;;;;;;;1.35;0.47;;;12.90;99.90;;;;;;5041808;28;20052;-85
2023/03/30 10:17:55;;;;;;;1.10;0.57;;;12.90;99.90;;;;;;5041991;28;20045;-85
2023/03/30 10:20:26;;;;;;;2.10;0.25;;;13.70;99.90;;;;;;5042117;28;20315;-85
2023/03/30 10:23:14;;;;;;;1.40;1.30;;;13.20;94.90;;;;;;5042201;28;20376;-85
2023/03/30 10:25:41;;;;;;;0.15;0.15;;;13.30;94.10;;;;;;5042563;28;20049;-85
2023/03/30 10:28:20;;;;;;;1.35;0.65;;;13.30;1.00;;;;;;5040969;28;20048;-85
2023/03/30 10:30:52;;;;;;;1.02;0.80;;;13.30;1.00;;;;;;5040903;28;20045;-85
2023/03/30 10:33:19;;;;;;;0.80;0.68;;;13.40;1.00;;;;;;5041790;28;20072;-84
2023/03/30 10:35:48;;;;;;;0.00;0.00;;;13.50;1.00;;;;;;5042959;28;20074;-85
2023/03/30 10:38:15;;;;;;;1.15;0.63;;;13.40;1.00;;;;;;5045330;28;20040;-85
2023/03/30 10:40:43;;;;;;;0.30;0.30;;;13.50;1.00;;;;;;5045974;28;20132;-85
2023/03/30 10:43:21;;;;;;;10.32;0.57;;;13.60;1.00;;;;;;5046264;28;20059;-85
2023/03/30 10:45:52;;;;;;;0.20;0.20;;;14.20;1.00;;;;;;5045674;28;20061;-84
2023/03/30 10:48:30;;;;;;;2.47;1.45;;;13.60;1.00;;;;;;5045607;28;20037;-85
2023/03/30 10:51:11;;;;;;;0.90;0.85;;;13.70;1.00;;;;;;5045868;28;20048;-84
2023/03/30 10:53:47;;;;;;;0.80;0.70;;;13.70;1.00;;;;;;5045701;28;20064;-84
2023/03/30 10:56:45;;;;;;;2.00;1.20;;;13.60;1.00;;;;;;5044996;28;20081;-84
2023/03/30 10:59:26;;;;;;;5.65;2.20;;;13.60;1.00;;;;;;5045269;28;20510;-84
2023/03/30 11:02:00;;;;;;;0.88;0.80;;;13.70;99.90;;;;;;5045351;28;20411;-84
2023/03/30 11:04:57;;;;;;;0.20;0.20;;;13.70;99.90;;;;;;5045094;28;20473;-84
2023/03/30 11:07:39;;;;;;;5.25;1.83;;;13.80;99.90;;;;;;5044479;28;20407;-84
2023/03/30 11:10:19;;;;;;;0.95;0.63;;;13.80;99.90;;;;;;5044900;28;20045;-84
2023/03/30 11:13:05;;;;;;;0.60;0.60;;;13.70;99.90;;;;;;5045144;28;20053;-84
2023/03/30 11:15:41;;;;;;;1.50;1.40;;;13.80;99.90;;;;;;5044564;28;20086;-84
2023/03/30 11:18:46;;;;;;;0.05;0.05;;;14.00;99.90;;;;;;5045049;28;20491;-83
2023/03/30 11:21:25;;;;;;;1.48;0.90;;;14.30;99.90;;;;;;5043548;28;20455;-84
2023/03/30 11:24:04;;;;;;;0.10;0.08;;;14.30;99.90;;;;;;5042828;28;20429;-84
2023/03/30 11:26:38;;;;;;;0.30;0.28;;;14.20;99.90;;;;;;5044916;28;20414;-84
2023/03/30 11:29:32;;;;;;;1.83;0.65;;;14.10;99.90;;;;;;5044569;28;20045;-84
2023/03/30 11:32:13;;;;;;;0.00;0.00;;;14.00;99.90;;;;;;5043318;28;20052;-84
2023/03/30 11:35:06;;;;;;;3.20;0.68;;;14.20;99.90;;;;;;5044690;28;20045;-84
2023/03/30 11:37:53;;;;;;;0.63;0.63;;;14.60;99.90;;;;;;5043633;28;20053;-84
2023/03/30 11:40:34;;;;;;;0.10;0.10;;;15.00;99.90;;;;;;5044351;28;20044;-84
2023/03/30 11:43:00;;;;;;;2.85;1.08;;;15.40;99.90;;;;;;5043882;28;20049;-84
2023/03/30 11:45:51;;;;;;;0.90;0.70;;;15.60;99.90;;;;;;5043885;28;20143;-84
2023/03/30 11:48:32;;;;;;;0.08;0.08;;;15.80;99.90;;;;;;5043147;28;20049;-84
2023/03/30 11:51:23;;;;;;;0.90;0.73;;;16.10;99.90;;;;;;5043719;28;20136;-84
2023/03/30 11:54:21;;;;;;;0.20;0.20;;;16.10;99.90;;;;;;5044051;28;20126;-84
2023/03/30 11:56:58;;;;;;;0.52;0.52;;;15.90;99.90;;;;;;5042061;28;20065;-84
2023/03/30 12:00:13;;;;;;;0.90;0.20;;;15.80;99.90;;;;;;5044092;28;20045;-84
2023/03/30 12:02:47;;;;;;;1.75;0.52;;;15.40;99.90;;;;;;5042899;28;20057;-84
2023/03/30 12:05:42;;;;;;;2.33;1.63;;;15.60;99.90;;;;;;5044024;28;20115;-84
2023/03/30 12:08:22;;;;;;;0.77;0.73;;;15.50;99.90;;;;;;5043278;28;20186;-84
2023/03/30 12:10:59;;;;;;;0.05;0.05;;;15.90;99.90;;;;;;5042157;28;20053;-84
2023/03/30 12:13:26;;;;;;;1.55;0.15;;;16.50;99.90;;;;;;5043349;28;20049;-84
2023/03/30 12:16:01;;;;;;;0.38;0.15;;;15.50;99.90;;;;;;5043698;28;20053;-84
2023/03/30 12:18:56;;;;;;;3.95;1.23;;;15.90;99.90;;;;;;5044070;28;20132;-84
2023/03/30 12:21:35;;;;;;;0.47;0.25;;;16.70;99.90;;;;;;5044228;28;20053;-84
2023/03/30 12:24:36;;;;;;;36.30;2.45;;;17.10;99.90;;;;;;5042606;28;20053;-84
2023/03/30 12:27:02;;;;;;;1.67;1.08;;;17.60;99.90;;;;;;5043932;28;20402;-84
2023/03/30 12:29:50;;;;;;;0.52;0.32;;;17.30;99.90;;;;;;5043815;28;20041;-84
2023/03/30 12:32:27;;;;;;;2.75;1.10;;;16.70;99.90;;;;;;5043623;28;20052;-84
2023/03/30 12:34:52;;;;;;;3.15;1.20;;;16.60;99.90;;;;;;5042978;28;20113;-84
2023/03/30 12:37:46;;;;;;;1.08;0.65;;;16.20;99.90;;;;;;5042848;28;20071;-84
2023/03/30 12:40:21;;;;;;;1.95;0.40;;;16.70;99.90;;;;;;5042881;28;20052;-84
2023/03/30 12:43:22;;;;;;;0.25;0.25;;;17.60;99.90;;;;;;5042785;28;20564;-84
2023/03/30 12:46:04;;;;;;;0.47;0.43;;;16.00;99.90;;;;;;5043261;28;20071;-84
2023/03/30 12:48:40;;;;;;;2.22;1.17;;;16.30;99.90;;;;;;5044365;28;20131;-83
2023/03/30 12:51:21;;;;;;;0.55;0.38;;;16.40;99.90;;;;;;5047608;28;20075;-83
2023/03/30 12:54:02;;;;;;;0.98;0.70;;;16.60;99.90;;;;;;5045519;28;20052;-84
2023/03/30 12:56:43;;;;;;;15.88;1.35;;;16.90;99.90;;;;;;5042566;28;20126;-84
2023/03/30 12:59:42;;;;;;;0.20;0.20;;;17.30;99.90;;;;;;5042651;28;20049;-83
2023/03/30 13:02:16;;;;;;;1.13;0.68;;;17.50;99.90;;;;;;5042864;28;20052;-84
2023/03/30 13:04:45;;;;;;;4.25;1.35;;;17.90;99.90;;;;;;5042528;28;20049;-84
2023/03/30 13:07:25;;;;;;;1.35;0.60;;;18.30;99.90;;;;;;5042687;28;20052;-84
2023/03/30 13:10:29;;;;;;;8.15;2.17;;;17.50;99.90;;;;;;5043295;28;20057;-83
2023/03/30 13:12:56;;;;;;;0.10;0.10;;;16.80;99.90;;;;;;5042962;28;20059;-83
2023/03/30 13:15:47;;;;;;;1.75;0.45;;;16.40;99.90;;;;;;5043298;28;20044;-84